createdAt,value
2024-05-09T00:00:36.308Z,67.20
2024-05-09T00:03:12.420Z,67.40
2024-05-09T00:05:43.777Z,67.50
2024-05-09T00:08:14.171Z,67.60
2024-05-09T00:10:44.258Z,67.60
2024-05-09T00:13:13.959Z,67.70
2024-05-09T00:15:43.626Z,67.80
2024-05-09T00:18:16.240Z,68.00
2024-05-09T00:20:46.133Z,68.10
2024-05-09T00:23:15.854Z,68.10
2024-05-09T00:25:45.694Z,68.10
2024-05-09T00:28:15.517Z,68.10
2024-05-09T00:30:45.085Z,68.20
2024-05-09T00:33:17.641Z,69.20
2024-05-09T00:35:47.435Z,68.50
2024-05-09T00:38:17.100Z,68.80
2024-05-09T00:40:46.832Z,68.90
2024-05-09T00:43:17.801Z,68.90
2024-05-09T00:45:47.454Z,69.00
2024-05-09T00:48:21.552Z,69.10
2024-05-09T00:50:54.227Z,69.20
2024-05-09T00:53:24.085Z,69.30
2024-05-09T00:55:55.330Z,69.40
2024-05-09T00:58:25.911Z,69.50
2024-05-09T01:00:56.416Z,69.60
2024-05-09T01:03:29.795Z,69.60
2024-05-09T01:09:21.830Z,69.80
2024-05-09T01:11:51.630Z,69.80
2024-05-09T01:14:21.572Z,69.90
2024-05-09T01:16:51.688Z,70.00
2024-05-09T01:19:26.351Z,70.00
2024-05-09T01:21:56.325Z,70.10
2024-05-09T01:24:28.685Z,70.30
2024-05-09T01:26:58.310Z,70.40
2024-05-09T01:29:28.516Z,70.40
2024-05-09T01:31:59.229Z,70.60
2024-05-09T01:34:29.288Z,70.70
2024-05-09T01:36:58.912Z,70.80
2024-05-09T01:39:31.155Z,70.90
2024-05-09T01:42:00.835Z,71.10
2024-05-09T01:44:30.567Z,71.20
2024-05-09T01:47:00.393Z,71.30
2024-05-09T01:49:30.197Z,71.30
2024-05-09T01:51:59.816Z,71.30
2024-05-09T01:54:32.114Z,71.50
2024-05-09T01:57:01.810Z,71.70
2024-05-09T01:59:31.767Z,71.60
2024-05-09T02:02:01.676Z,71.60
2024-05-09T02:04:31.802Z,71.70
2024-05-09T02:07:01.594Z,71.90
2024-05-09T02:09:34.015Z,72.10
2024-05-09T02:12:03.982Z,72.10
2024-05-09T02:14:33.684Z,72.20
2024-05-09T02:17:03.762Z,72.30
2024-05-09T02:19:33.534Z,72.40
2024-05-09T02:22:03.128Z,72.40
2024-05-09T02:24:35.361Z,72.40
2024-05-09T02:27:04.998Z,72.70
2024-05-09T02:29:34.674Z,72.90
2024-05-09T02:32:04.542Z,73.00
2024-05-09T02:34:34.292Z,73.20
2024-05-09T02:37:01.369Z,73.20
2024-05-09T02:39:30.973Z,73.30
2024-05-09T02:42:00.652Z,73.50
2024-05-09T02:44:30.387Z,73.60
2024-05-09T02:46:57.564Z,73.60
2024-05-09T02:49:27.378Z,73.70
2024-05-09T02:51:54.610Z,73.80
2024-05-09T02:54:24.234Z,73.90
2024-05-09T02:56:51.303Z,74.00
2024-05-09T02:59:23.732Z,74.20
2024-05-09T03:01:51.008Z,74.20
2024-05-09T03:04:21.188Z,74.40
2024-05-09T03:06:48.366Z,74.40
2024-05-09T03:09:18.083Z,74.50
2024-05-09T03:14:18.838Z,74.70
2024-05-09T03:16:48.680Z,74.80
2024-05-09T03:19:18.672Z,74.90
2024-05-09T03:21:45.780Z,75.00
2024-05-09T03:24:15.536Z,75.20
2024-05-09T03:26:42.590Z,75.30
2024-05-09T03:29:12.725Z,75.50
2024-05-09T03:31:39.772Z,75.50
2024-05-09T03:34:12.422Z,75.70
2024-05-09T03:36:41.230Z,75.80
2024-05-09T03:39:12.196Z,75.90
2024-05-09T03:41:41.860Z,76.00
2024-05-09T03:44:11.789Z,76.10
2024-05-09T03:46:41.686Z,76.20
2024-05-09T03:49:11.630Z,76.30
2024-05-09T03:51:41.339Z,76.50
2024-05-09T03:54:08.394Z,76.60
2024-05-09T03:56:38.164Z,76.70
2024-05-09T03:59:05.264Z,76.90
2024-05-09T04:01:35.028Z,77.00
2024-05-09T04:04:02.222Z,77.20
2024-05-09T04:06:34.554Z,77.30
2024-05-09T04:09:01.516Z,77.60
2024-05-09T04:11:31.245Z,77.70
2024-05-09T04:13:58.451Z,77.90
2024-05-09T04:16:28.436Z,78.00
2024-05-09T04:18:55.561Z,78.10
2024-05-09T04:21:25.198Z,78.30
2024-05-09T04:23:54.939Z,78.40
2024-05-09T04:26:24.630Z,78.70
2024-05-09T04:28:51.711Z,79.70
2024-05-09T04:31:21.453Z,79.10
2024-05-09T04:33:48.699Z,79.30
2024-05-09T04:36:18.375Z,79.50
2024-05-09T04:38:45.578Z,79.60
2024-05-09T04:41:17.950Z,79.40
2024-05-09T04:43:45.056Z,80.00
2024-05-09T04:46:14.832Z,80.10
2024-05-09T04:48:42.104Z,80.30
2024-05-09T04:51:11.915Z,80.60
2024-05-09T04:53:39.200Z,80.80
2024-05-09T04:56:09.485Z,81.00
2024-05-09T04:58:39.432Z,81.30
2024-05-09T05:01:09.231Z,81.50
2024-05-09T05:03:36.871Z,81.70
2024-05-09T05:06:06.682Z,82.00
2024-05-09T05:08:34.447Z,82.20
2024-05-09T05:11:04.339Z,83.10
2024-05-09T05:13:31.490Z,82.50
2024-05-09T05:16:04.929Z,82.80
2024-05-09T05:18:31.996Z,82.90
2024-05-09T05:21:01.682Z,83.10
2024-05-09T05:23:28.883Z,83.20
2024-05-09T05:25:58.494Z,83.40
2024-05-09T05:28:25.625Z,83.60
2024-05-09T05:30:55.316Z,83.70
2024-05-09T05:33:25.232Z,83.90
2024-05-09T05:35:55.079Z,84.10
2024-05-09T05:38:27.978Z,84.30
2024-05-09T05:40:55.851Z,84.60
2024-05-09T05:43:25.666Z,84.70
2024-05-09T05:45:52.773Z,84.90
2024-05-09T05:48:22.714Z,85.10
2024-05-09T05:50:52.491Z,85.30
2024-05-09T05:53:22.364Z,85.40
2024-05-09T05:55:49.568Z,85.50
2024-05-09T05:58:20.344Z,85.70
2024-05-09T06:00:48.321Z,85.80
2024-05-09T06:03:18.054Z,85.80
2024-05-09T06:05:46.128Z,85.80
2024-05-09T06:08:18.612Z,86.00
2024-05-09T06:10:45.868Z,86.20
2024-05-09T06:13:15.922Z,86.40
2024-05-09T06:15:43.726Z,86.40
2024-05-09T06:18:13.880Z,86.50
2024-05-09T06:20:42.817Z,86.50
2024-05-09T06:23:13.676Z,87.40
2024-05-09T06:25:44.137Z,86.60
2024-05-09T06:28:14.339Z,86.60
2024-05-09T06:30:42.817Z,86.60
2024-05-09T06:33:15.699Z,86.50
2024-05-09T06:35:44.084Z,86.60
2024-05-09T06:38:14.072Z,86.60
2024-05-09T06:40:44.590Z,86.50
2024-05-09T06:43:16.886Z,86.50
2024-05-09T06:45:47.079Z,86.50
2024-05-09T06:48:17.333Z,86.60
2024-05-09T06:50:44.553Z,86.60
2024-05-09T06:53:16.546Z,86.60
2024-05-09T06:55:46.256Z,86.60
2024-05-09T06:58:15.972Z,86.60
2024-05-09T07:00:43.265Z,86.50
2024-05-09T07:03:15.384Z,86.50
2024-05-09T07:05:45.070Z,86.40
2024-05-09T07:08:15.087Z,86.40
2024-05-09T07:10:42.357Z,86.30
2024-05-09T07:13:15.481Z,86.30
2024-05-09T07:15:43.196Z,86.30
2024-05-09T07:18:15.662Z,86.00
2024-05-09T07:20:43.499Z,85.80
2024-05-09T07:23:13.530Z,85.50
2024-05-09T07:25:41.187Z,85.20
2024-05-09T07:28:16.600Z,84.70
2024-05-09T07:30:43.784Z,84.40
2024-05-09T07:33:18.968Z,84.00
2024-05-09T07:35:46.621Z,83.50
2024-05-09T07:38:16.881Z,83.40
2024-05-09T07:40:43.945Z,82.70
2024-05-09T07:43:16.692Z,82.50
2024-05-09T07:45:51.743Z,82.40
2024-05-09T07:52:37.740Z,82.00
2024-05-09T07:53:47.510Z,81.70
2024-05-09T07:56:19.113Z,81.50
2024-05-09T07:58:54.191Z,81.40
2024-05-09T08:01:21.830Z,81.10
2024-05-09T08:03:51.842Z,80.60
2024-05-09T08:06:19.085Z,80.00
2024-05-09T08:08:48.875Z,79.60
2024-05-09T08:11:16.102Z,79.10
2024-05-09T08:13:45.793Z,78.60
2024-05-09T08:16:15.903Z,78.10
2024-05-09T08:18:45.688Z,77.70
2024-05-09T08:21:12.728Z,77.20
2024-05-09T08:23:42.392Z,76.60
2024-05-09T08:26:09.395Z,75.90
2024-05-09T08:28:39.194Z,75.60
2024-05-09T08:31:07.252Z,75.50
2024-05-09T08:33:39.990Z,75.20
2024-05-09T08:36:07.215Z,74.80
2024-05-09T08:38:36.936Z,74.40
2024-05-09T08:41:04.430Z,74.00
2024-05-09T08:43:34.024Z,73.60
2024-05-09T08:46:02.260Z,73.30
2024-05-09T08:48:33.054Z,72.70
2024-05-09T08:51:03.251Z,73.20
2024-05-09T08:53:32.868Z,71.90
2024-05-09T08:56:01.506Z,71.80
2024-05-09T08:58:32.421Z,71.50
2024-05-09T09:01:00.517Z,71.40
2024-05-09T09:03:31.891Z,71.10
2024-05-09T09:06:01.837Z,70.80
2024-05-09T09:08:34.287Z,70.30
2024-05-09T09:11:01.417Z,70.10
2024-05-09T09:13:31.244Z,70.00
2024-05-09T09:15:59.411Z,69.80
2024-05-09T09:18:30.409Z,69.40
2024-05-09T09:20:57.839Z,69.30
2024-05-09T09:23:30.232Z,69.10
2024-05-09T09:26:01.446Z,68.90
2024-05-09T09:28:31.201Z,68.50
2024-05-09T09:31:01.553Z,67.90
2024-05-09T09:33:32.184Z,68.30
2024-05-09T09:35:59.673Z,67.30
2024-05-09T09:38:31.284Z,67.20
2024-05-09T09:41:01.743Z,66.40
2024-05-09T09:43:32.145Z,67.00
2024-05-09T09:46:00.464Z,66.90
2024-05-09T09:48:30.446Z,66.70
2024-05-09T09:50:57.972Z,66.40
2024-05-09T09:53:27.716Z,66.10
2024-05-09T09:55:56.057Z,66.00
2024-05-09T09:58:28.571Z,65.80
2024-05-09T10:00:55.827Z,65.50
2024-05-09T10:03:25.586Z,65.40
2024-05-09T10:05:53.378Z,65.10
2024-05-09T10:08:25.935Z,64.90
2024-05-09T10:10:53.263Z,64.80
2024-05-09T10:13:23.120Z,64.60
2024-05-09T10:15:54.480Z,64.30
2024-05-09T10:18:28.427Z,64.60
2024-05-09T10:20:57.940Z,64.90
2024-05-09T10:23:28.511Z,64.80
2024-05-09T10:25:56.203Z,65.00
2024-05-09T10:28:28.032Z,64.50
2024-05-09T10:31:10.516Z,64.20
2024-05-09T10:33:41.801Z,63.80
2024-05-09T10:36:12.169Z,63.70
2024-05-09T10:38:42.851Z,63.80
2024-05-09T10:41:10.441Z,64.00
2024-05-09T10:43:41.768Z,63.80
2024-05-09T10:46:11.943Z,64.00
2024-05-09T10:48:42.285Z,64.50
2024-05-09T10:51:09.587Z,64.70
2024-05-09T10:53:45.789Z,64.70
2024-05-09T10:56:13.647Z,64.80
2024-05-09T10:58:43.228Z,64.80
2024-05-09T11:01:13.725Z,65.00
2024-05-09T11:03:43.836Z,65.20
2024-05-09T11:06:11.317Z,65.20
2024-05-09T11:08:41.426Z,64.90
2024-05-09T11:11:09.155Z,64.10
2024-05-09T11:13:39.595Z,62.90
2024-05-09T11:16:20.147Z,61.40
2024-05-09T11:18:57.901Z,60.00
2024-05-09T11:21:25.511Z,58.80
2024-05-09T11:23:55.443Z,58.70
2024-05-09T11:26:25.282Z,57.30
2024-05-09T11:28:55.166Z,57.10
2024-05-09T11:31:25.148Z,55.50
2024-05-09T11:33:56.636Z,54.60
2024-05-09T11:36:23.802Z,54.00
2024-05-09T11:38:53.626Z,53.60
2024-05-09T11:41:20.657Z,53.00
2024-05-09T11:43:50.334Z,52.60
2024-05-09T11:46:17.638Z,52.30
2024-05-09T11:48:49.973Z,52.00
2024-05-09T11:51:17.066Z,51.20
2024-05-09T11:53:46.758Z,50.40
2024-05-09T11:56:15.625Z,49.80
2024-05-09T11:58:45.344Z,49.30
2024-05-09T12:01:12.599Z,49.30
2024-05-09T12:03:42.372Z,49.00
2024-05-09T12:06:12.289Z,48.30
2024-05-09T12:08:41.970Z,47.60
2024-05-09T12:11:09.140Z,47.00
2024-05-09T12:13:38.815Z,46.70
2024-05-09T12:16:06.193Z,46.20
2024-05-09T12:18:36.618Z,45.50
2024-05-09T12:21:03.902Z,45.20
2024-05-09T12:23:36.307Z,44.90
2024-05-09T12:26:03.526Z,44.50
2024-05-09T12:28:33.338Z,44.50
2024-05-09T12:31:00.624Z,44.20
2024-05-09T12:33:30.351Z,43.80
2024-05-09T12:35:57.436Z,43.60
2024-05-09T12:38:27.154Z,43.30
2024-05-09T12:40:56.952Z,43.00
2024-05-09T12:43:26.826Z,42.60
2024-05-09T12:45:54.063Z,42.20
2024-05-09T12:48:24.081Z,42.00
2024-05-09T12:50:51.890Z,41.60
2024-05-09T12:53:21.596Z,41.30
2024-05-09T12:55:56.296Z,41.70
2024-05-09T12:58:32.046Z,41.10
2024-05-09T13:00:59.272Z,41.10
2024-05-09T13:03:29.135Z,41.10
2024-05-09T13:05:56.445Z,40.80
2024-05-09T13:08:26.243Z,40.70
2024-05-09T13:10:53.383Z,40.40
2024-05-09T13:13:23.110Z,40.30
2024-05-09T13:15:52.850Z,40.00
2024-05-09T13:18:22.548Z,39.70
2024-05-09T13:20:49.657Z,39.50
2024-05-09T13:23:19.398Z,39.10
2024-05-09T13:25:46.385Z,39.00
2024-05-09T13:28:16.297Z,38.60
2024-05-09T13:30:43.500Z,38.50
2024-05-09T13:33:16.134Z,38.40
2024-05-09T13:35:47.421Z,38.80
2024-05-09T13:38:20.856Z,37.70
2024-05-09T13:40:48.878Z,37.50
2024-05-09T13:43:19.270Z,37.40
2024-05-09T13:45:46.767Z,37.30
2024-05-09T13:48:19.893Z,37.20
2024-05-09T13:50:47.113Z,37.10
2024-05-09T13:53:16.951Z,37.00
2024-05-09T13:55:44.029Z,36.80
2024-05-09T13:58:14.032Z,36.60
2024-05-09T14:00:46.597Z,36.60
2024-05-09T14:03:21.526Z,36.50
2024-05-09T14:05:50.105Z,36.90
2024-05-09T14:08:22.340Z,36.40
2024-05-09T14:10:50.552Z,36.30
2024-05-09T14:13:20.626Z,36.30
2024-05-09T14:15:47.835Z,36.30
2024-05-09T14:18:17.646Z,36.00
2024-05-09T14:20:47.464Z,35.60
2024-05-09T14:23:17.463Z,35.30
2024-05-09T14:25:46.033Z,35.20
2024-05-09T14:28:17.074Z,35.10
2024-05-09T14:30:44.185Z,34.90
2024-05-09T14:33:16.431Z,34.70
2024-05-09T14:35:43.399Z,34.60
2024-05-09T14:38:15.705Z,34.60
2024-05-09T14:40:44.097Z,34.80
2024-05-09T14:43:14.754Z,35.30
2024-05-09T14:45:42.811Z,35.50
2024-05-09T14:48:13.358Z,35.60
2024-05-09T14:50:41.178Z,35.60
2024-05-09T14:53:11.415Z,35.20
2024-05-09T14:55:43.098Z,35.00
2024-05-09T14:58:13.808Z,34.80
2024-05-09T15:00:47.695Z,34.70
2024-05-09T15:03:20.807Z,34.50
2024-05-09T15:05:49.137Z,35.20
2024-05-09T15:08:19.839Z,34.80
2024-05-09T15:10:50.652Z,35.00
2024-05-09T15:13:21.096Z,34.90
2024-05-09T15:15:48.690Z,34.50
2024-05-09T15:18:19.046Z,34.20
2024-05-09T15:20:46.595Z,33.90
2024-05-09T15:23:16.482Z,33.80
2024-05-09T15:25:44.803Z,33.80
2024-05-09T15:28:17.517Z,34.40
2024-05-09T15:30:46.573Z,33.80
2024-05-09T15:33:16.975Z,33.70
2024-05-09T15:35:46.328Z,33.60
2024-05-09T15:38:18.364Z,33.50
2024-05-09T15:40:46.125Z,33.40
2024-05-09T15:43:18.661Z,33.50
2024-05-09T15:45:48.352Z,34.00
2024-05-09T15:48:15.512Z,33.70
2024-05-09T15:50:45.261Z,33.30
2024-05-09T15:53:13.330Z,33.10
2024-05-09T15:55:43.801Z,33.00
2024-05-09T15:58:11.223Z,32.80
2024-05-09T16:00:45.676Z,32.70
2024-05-09T16:03:15.129Z,32.60
2024-05-09T16:05:46.663Z,32.60
2024-05-09T16:08:14.913Z,32.40
2024-05-09T16:10:46.199Z,32.60
2024-05-09T16:13:14.709Z,32.60
2024-05-09T16:15:48.299Z,32.50
2024-05-09T16:18:15.778Z,32.50
2024-05-09T16:20:48.288Z,32.60
2024-05-09T16:23:19.683Z,32.70
2024-05-09T16:25:48.242Z,32.60
2024-05-09T16:28:18.615Z,32.70
2024-05-09T16:30:48.572Z,32.80
2024-05-09T16:33:19.609Z,32.80
2024-05-09T16:35:46.953Z,32.70
2024-05-09T16:38:16.690Z,32.60
2024-05-09T16:40:43.948Z,32.60
2024-05-09T16:43:13.936Z,32.70
2024-05-09T16:45:41.633Z,32.80
2024-05-09T16:48:14.637Z,32.90
2024-05-09T16:50:42.047Z,33.00
2024-05-09T16:53:11.721Z,33.00
2024-05-09T16:55:38.876Z,33.10
2024-05-09T16:58:09.331Z,33.20
2024-05-09T17:00:41.656Z,33.30
2024-05-09T17:03:16.801Z,33.50
2024-05-09T17:05:46.780Z,33.60
2024-05-09T17:08:18.040Z,33.60
2024-05-09T17:10:45.589Z,33.60
2024-05-09T17:13:15.472Z,33.50
2024-05-09T17:15:45.190Z,33.50
2024-05-09T17:18:18.061Z,33.50
2024-05-09T17:20:47.747Z,33.60
2024-05-09T17:23:14.991Z,33.60
2024-05-09T17:25:45.220Z,33.80
2024-05-09T17:28:12.564Z,33.90
2024-05-09T17:30:43.026Z,34.00
2024-05-09T17:33:11.253Z,34.20
2024-05-09T17:35:46.116Z,34.40
2024-05-09T17:38:13.374Z,34.70
2024-05-09T17:40:43.095Z,35.00
2024-05-09T17:43:11.001Z,35.30
2024-05-09T17:45:41.784Z,35.70
2024-05-09T17:48:10.714Z,36.00
2024-05-09T17:50:42.004Z,36.30
2024-05-09T17:53:12.030Z,36.90
2024-05-09T17:55:42.721Z,37.30
2024-05-09T17:58:10.227Z,37.70
2024-05-09T18:00:42.314Z,38.30
2024-05-09T18:03:14.158Z,38.80
2024-05-09T18:05:42.321Z,39.20
2024-05-09T18:08:15.575Z,39.70
2024-05-09T18:10:42.982Z,40.20
2024-05-09T18:13:13.540Z,40.90
2024-05-09T18:15:41.198Z,41.50
2024-05-09T18:18:11.480Z,42.00
2024-05-09T18:20:43.887Z,42.40
2024-05-09T18:23:19.443Z,43.00
2024-05-09T18:25:49.305Z,43.40
2024-05-09T18:28:17.212Z,43.90
2024-05-09T18:30:47.487Z,44.40
2024-05-09T18:33:14.997Z,44.80
2024-05-09T18:35:45.672Z,45.40
2024-05-09T18:38:15.531Z,45.90
2024-05-09T18:40:48.213Z,46.50
2024-05-09T18:43:16.677Z,47.80
2024-05-09T18:45:46.649Z,47.60
2024-05-09T18:48:13.965Z,48.10
2024-05-09T18:50:43.882Z,48.60
2024-05-09T18:53:12.392Z,49.00
2024-05-09T18:55:45.647Z,49.40
2024-05-09T18:58:12.872Z,49.90
2024-05-09T19:00:45.378Z,50.30
2024-05-09T19:03:15.109Z,50.70
2024-05-09T19:05:46.388Z,51.10
2024-05-09T19:08:14.904Z,51.60
2024-05-09T19:10:48.010Z,51.90
2024-05-09T19:13:15.632Z,52.30
2024-05-09T19:15:45.552Z,52.70
2024-05-09T19:18:14.021Z,53.00
2024-05-09T19:20:44.430Z,53.30
2024-05-09T19:23:11.905Z,53.60
2024-05-09T19:25:41.750Z,54.00
2024-05-09T19:28:11.387Z,54.40
2024-05-09T19:30:42.627Z,54.70
2024-05-09T19:33:12.021Z,55.00
2024-05-09T19:35:42.954Z,55.40
2024-05-09T19:38:10.531Z,55.70
2024-05-09T19:40:40.361Z,56.00
2024-05-09T19:43:07.676Z,56.30
2024-05-09T19:45:40.560Z,56.60
2024-05-09T19:48:08.224Z,56.90
2024-05-09T19:50:42.911Z,57.10
2024-05-09T19:53:12.352Z,57.30
2024-05-09T19:55:42.357Z,57.60
2024-05-09T19:58:09.997Z,57.80
2024-05-09T20:00:43.937Z,58.00
2024-05-09T20:03:12.734Z,58.20
2024-05-09T20:05:43.025Z,58.50
2024-05-09T20:08:10.337Z,58.70
2024-05-09T20:10:40.174Z,58.80
2024-05-09T20:13:08.244Z,58.90
2024-05-09T20:15:39.110Z,59.10
2024-05-09T20:18:09.066Z,59.30
2024-05-09T20:20:41.989Z,59.50
2024-05-09T20:23:11.529Z,59.70
2024-05-09T20:25:41.243Z,60.00
2024-05-09T20:28:08.469Z,60.30
2024-05-09T20:30:38.675Z,60.50
2024-05-09T20:33:09.694Z,60.80
2024-05-09T20:35:40.129Z,60.90
2024-05-09T20:38:07.554Z,61.20
2024-05-09T20:40:39.149Z,61.40
2024-05-09T20:43:08.515Z,61.70
2024-05-09T20:45:38.917Z,61.90
2024-05-09T20:48:09.756Z,62.10
2024-05-09T20:50:42.033Z,62.20
2024-05-09T20:53:10.975Z,62.30
2024-05-09T20:55:40.942Z,62.60
2024-05-09T20:58:08.311Z,62.80
2024-05-09T21:00:41.985Z,63.00
2024-05-09T21:03:16.366Z,63.20
2024-05-09T21:05:47.823Z,63.30
2024-05-09T21:08:15.430Z,63.40
2024-05-09T21:10:45.392Z,63.60
2024-05-09T21:13:12.542Z,63.70
2024-05-09T21:15:42.404Z,63.80
2024-05-09T21:18:09.600Z,63.80
2024-05-09T21:20:41.957Z,63.80
2024-05-09T21:23:09.125Z,63.80
2024-05-09T21:25:38.869Z,63.60
2024-05-09T21:28:06.114Z,63.50
2024-05-09T21:30:41.574Z,63.50
2024-05-09T21:33:11.858Z,63.50
2024-05-09T21:35:46.518Z,63.40
2024-05-09T21:38:14.776Z,63.40
2024-05-09T21:40:45.355Z,63.50
2024-05-09T21:43:12.771Z,63.60
2024-05-09T21:45:42.666Z,63.70
2024-05-09T21:48:09.875Z,64.00
2024-05-09T21:50:41.775Z,64.10
2024-05-09T21:53:13.384Z,64.30
2024-05-09T21:55:43.807Z,64.50
2024-05-09T21:58:11.708Z,64.70
2024-05-09T22:00:42.989Z,64.90
2024-05-09T22:03:11.454Z,65.10
2024-05-09T22:05:44.290Z,65.30
2024-05-09T22:08:14.507Z,65.30
2024-05-09T22:10:44.346Z,65.30
2024-05-09T22:13:11.587Z,65.40
2024-05-09T22:15:41.595Z,65.40
2024-05-09T22:18:10.007Z,65.50
2024-05-09T22:20:44.884Z,65.50
2024-05-09T22:23:15.918Z,65.60
2024-05-09T22:25:45.693Z,65.60
2024-05-09T22:28:13.276Z,65.70
2024-05-09T22:30:44.028Z,65.70
2024-05-09T22:33:12.225Z,65.80
2024-05-09T22:35:42.620Z,65.80
2024-05-09T22:38:09.665Z,65.90
2024-05-09T22:40:47.795Z,66.00
2024-05-09T22:43:24.632Z,66.20
2024-05-09T22:45:52.779Z,66.40
2024-05-09T22:48:23.891Z,66.60
2024-05-09T22:50:51.509Z,66.80
2024-05-09T22:53:21.179Z,66.90
2024-05-09T22:55:50.928Z,67.10
2024-05-09T22:58:20.910Z,67.40
2024-05-09T23:00:48.188Z,67.60
2024-05-09T23:03:21.113Z,67.80
2024-05-09T23:05:48.664Z,67.80
2024-05-09T23:08:18.323Z,68.00
2024-05-09T23:10:45.346Z,68.10
2024-05-09T23:13:17.628Z,68.30
2024-05-09T23:15:44.768Z,68.40
2024-05-09T23:18:14.673Z,68.50
2024-05-09T23:20:41.792Z,68.70
2024-05-09T23:23:12.298Z,68.80
2024-05-09T23:25:41.654Z,69.10
2024-05-09T23:28:11.960Z,69.30
2024-05-09T23:30:44.506Z,69.50
2024-05-09T23:33:12.408Z,69.80
2024-05-09T23:35:44.300Z,69.90
2024-05-09T23:38:14.506Z,70.00
2024-05-09T23:40:42.820Z,70.20
2024-05-09T23:43:13.472Z,70.20
2024-05-09T23:45:43.704Z,70.40
2024-05-09T23:48:13.773Z,70.50
2024-05-09T23:50:41.627Z,70.60
2024-05-09T23:53:11.540Z,70.70
2024-05-09T23:55:38.870Z,70.80
2024-05-09T23:58:08.905Z,70.90
